createdAt,value
2019-03-20T00:00:58.264Z,69.60
2019-03-20T00:04:06.199Z,69.66
2019-03-20T00:07:13.720Z,70.23
2019-03-20T00:10:20.550Z,69.91
2019-03-20T00:13:28.212Z,70.73
2019-03-20T00:16:35.542Z,69.52
2019-03-20T00:19:42.242Z,70.69
2019-03-20T00:22:48.674Z,69.60
2019-03-20T00:25:55.108Z,69.05
2019-03-20T00:29:01.644Z,68.64
2019-03-20T00:32:09.844Z,69.41
2019-03-20T00:35:16.259Z,69.78
2019-03-20T00:38:23.053Z,69.40
2019-03-20T00:41:31.000Z,70.72
2019-03-20T00:44:37.556Z,69.83
2019-03-20T00:47:44.144Z,70.57
2019-03-20T00:50:50.833Z,70.27
2019-03-20T00:53:58.595Z,68.99
2019-03-20T00:57:05.022Z,69.76
2019-03-20T01:00:14.560Z,70.66
2019-03-20T01:03:21.031Z,69.34
2019-03-20T01:06:27.399Z,69.10
2019-03-20T01:09:34.227Z,68.98
2019-03-20T01:12:40.709Z,69.68
2019-03-20T01:15:52.422Z,69.47
2019-03-20T01:19:01.326Z,68.82
2019-03-20T01:22:08.307Z,69.12
2019-03-20T01:25:16.284Z,69.64
2019-03-20T01:28:23.680Z,69.55
2019-03-20T01:31:31.546Z,69.29
2019-03-20T01:34:38.943Z,70.11
2019-03-20T01:37:46.609Z,71.30
2019-03-20T01:40:55.347Z,70.24
2019-03-20T01:44:04.907Z,69.27
2019-03-20T01:47:12.928Z,70.43
2019-03-20T01:50:21.022Z,69.32
2019-03-20T01:53:29.071Z,71.42
2019-03-20T01:56:35.518Z,68.06
2019-03-20T01:59:44.408Z,70.33
2019-03-20T02:02:50.870Z,68.28
2019-03-20T02:05:58.692Z,67.83
2019-03-20T02:09:07.352Z,68.66
2019-03-20T02:12:13.851Z,69.25
2019-03-20T02:15:21.727Z,67.12
2019-03-20T02:18:28.095Z,66.99
2019-03-20T02:21:34.998Z,67.52
2019-03-20T02:24:42.278Z,66.60
2019-03-20T02:27:49.774Z,67.36
2019-03-20T02:30:56.808Z,66.66
2019-03-20T02:34:03.135Z,67.15
2019-03-20T02:37:09.652Z,66.98
2019-03-20T02:40:16.456Z,66.38
2019-03-20T02:43:23.587Z,65.87
2019-03-20T02:46:30.013Z,65.69
2019-03-20T02:49:36.723Z,65.47
2019-03-20T02:52:45.046Z,65.87
2019-03-20T02:55:53.004Z,65.97
2019-03-20T02:58:59.369Z,65.66
2019-03-20T03:02:06.459Z,65.42
2019-03-20T03:05:13.643Z,65.64
2019-03-20T03:08:20.025Z,67.02
2019-03-20T03:11:26.504Z,65.86
2019-03-20T03:14:33.089Z,66.62
2019-03-20T03:17:41.003Z,66.41
2019-03-20T03:20:47.902Z,65.86
2019-03-20T03:23:55.875Z,66.90
2019-03-20T03:27:02.789Z,65.66
2019-03-20T03:30:09.540Z,66.03
2019-03-20T03:33:20.661Z,66.29
2019-03-20T03:36:30.558Z,65.84
2019-03-20T03:39:38.527Z,66.00
2019-03-20T03:42:47.615Z,66.23
2019-03-20T03:45:54.063Z,66.17
2019-03-20T03:49:00.448Z,66.03
2019-03-20T03:52:08.394Z,66.21
2019-03-20T03:55:15.017Z,66.18
2019-03-20T03:58:21.688Z,66.29
2019-03-20T04:01:29.471Z,66.77
2019-03-20T04:04:36.203Z,66.89
2019-03-20T04:07:42.679Z,67.25
2019-03-20T04:10:49.176Z,67.36
2019-03-20T04:13:57.119Z,66.99
2019-03-20T04:17:23.297Z,67.29
2019-03-20T04:20:31.141Z,67.40
2019-03-20T04:23:37.577Z,67.83
2019-03-20T04:26:46.624Z,67.52
2019-03-20T04:29:53.421Z,67.79
2019-03-20T04:32:59.971Z,67.92
2019-03-20T04:36:07.443Z,68.40
2019-03-20T04:39:13.702Z,68.90
2019-03-20T04:42:20.133Z,68.68
2019-03-20T04:45:26.505Z,68.57
2019-03-20T04:48:33.001Z,68.81
2019-03-20T04:51:39.486Z,69.67
2019-03-20T04:54:46.000Z,69.62
2019-03-20T04:57:52.386Z,69.06
2019-03-20T05:00:58.854Z,69.59
2019-03-20T05:04:05.332Z,69.50
2019-03-20T05:07:13.642Z,69.67
2019-03-20T05:10:20.095Z,69.44
2019-03-20T05:13:26.531Z,69.51
2019-03-20T05:16:33.832Z,70.34
2019-03-20T05:19:40.443Z,70.43
2019-03-20T05:22:46.799Z,70.15
2019-03-20T05:25:53.548Z,70.64
2019-03-20T05:28:59.855Z,70.45
2019-03-20T05:32:06.631Z,70.65
2019-03-20T05:35:14.168Z,70.54
2019-03-20T05:38:20.819Z,70.57
2019-03-20T05:41:27.246Z,70.25
2019-03-20T05:44:34.800Z,70.56
2019-03-20T05:47:42.835Z,70.68
2019-03-20T05:50:49.755Z,71.38
2019-03-20T05:53:56.203Z,71.04
2019-03-20T05:57:02.917Z,70.99
2019-03-20T06:00:10.883Z,71.03
2019-03-20T06:03:24.573Z,71.00
2019-03-20T06:06:31.477Z,71.00
2019-03-20T06:09:39.933Z,71.03
2019-03-20T06:12:46.699Z,71.12
2019-03-20T06:15:53.112Z,71.00
2019-03-20T06:19:00.550Z,71.03
2019-03-20T06:22:07.030Z,70.92
2019-03-20T06:25:13.511Z,71.25
2019-03-20T06:28:19.940Z,71.30
2019-03-20T06:31:27.468Z,71.37
2019-03-20T06:34:34.141Z,71.46
2019-03-20T06:37:40.614Z,71.31
2019-03-20T06:40:48.095Z,71.52
2019-03-20T06:43:54.592Z,72.23
2019-03-20T06:47:01.194Z,72.65
2019-03-20T06:50:11.317Z,72.82
2019-03-20T06:53:17.664Z,73.05
2019-03-20T06:56:24.014Z,72.91
2019-03-20T07:00:10.238Z,73.49
2019-03-20T07:03:29.860Z,74.04
2019-03-20T07:06:59.025Z,74.76
2019-03-20T07:10:34.984Z,74.89
2019-03-20T07:13:41.517Z,75.41
2019-03-20T07:16:47.891Z,75.87
2019-03-20T07:19:55.678Z,76.15
2019-03-20T07:23:03.071Z,76.47
2019-03-20T07:26:09.851Z,76.67
2019-03-20T07:29:16.186Z,77.01
2019-03-20T07:32:22.887Z,77.70
2019-03-20T07:35:32.511Z,77.91
2019-03-20T07:38:39.368Z,79.19
2019-03-20T07:41:45.729Z,78.84
2019-03-20T07:44:52.485Z,78.50
2019-03-20T07:47:59.048Z,79.77
2019-03-20T07:51:05.850Z,79.76
2019-03-20T07:54:12.242Z,80.41
2019-03-20T07:57:19.042Z,80.21
2019-03-20T08:00:25.425Z,80.50
2019-03-20T08:03:31.913Z,81.07
2019-03-20T08:06:39.365Z,80.68
2019-03-20T08:09:45.830Z,80.91
2019-03-20T08:12:52.211Z,80.71
2019-03-20T08:15:58.650Z,81.06
2019-03-20T08:19:05.232Z,81.31
2019-03-20T08:22:11.729Z,80.67
2019-03-20T08:25:18.121Z,80.47
2019-03-20T08:28:24.636Z,80.27
2019-03-20T08:31:31.233Z,80.45
2019-03-20T08:34:38.422Z,80.67
2019-03-20T08:37:46.459Z,80.17
2019-03-20T08:40:53.959Z,80.24
2019-03-20T08:44:00.431Z,79.85
2019-03-20T08:47:06.800Z,80.01
2019-03-20T08:50:15.437Z,80.11
2019-03-20T08:53:22.233Z,80.58
2019-03-20T08:56:28.595Z,80.26
2019-03-20T08:59:35.002Z,79.96
2019-03-20T09:02:41.280Z,79.22
2019-03-20T09:05:49.191Z,79.69
2019-03-20T09:08:55.546Z,79.68
2019-03-20T09:12:03.176Z,79.87
2019-03-20T09:15:11.095Z,79.97
2019-03-20T09:18:17.567Z,80.07
2019-03-20T09:21:23.908Z,80.18
2019-03-20T09:24:30.306Z,80.67
2019-03-20T09:27:36.911Z,80.80
2019-03-20T09:30:43.567Z,80.76
2019-03-20T09:33:49.974Z,80.49
2019-03-20T09:36:56.790Z,80.98
2019-03-20T09:40:03.445Z,81.60
2019-03-20T09:43:09.924Z,81.38
2019-03-20T09:46:16.277Z,81.94
2019-03-20T09:49:22.862Z,82.36
2019-03-20T09:52:29.324Z,83.41
2019-03-20T09:55:35.855Z,83.38
2019-03-20T09:58:42.247Z,83.97
2019-03-20T10:01:48.624Z,84.08
2019-03-20T10:04:55.051Z,84.42
2019-03-20T10:08:01.746Z,83.97
2019-03-20T10:11:08.028Z,84.51
2019-03-20T10:14:14.345Z,84.31
2019-03-20T10:17:20.693Z,84.70
2019-03-20T10:20:27.132Z,84.52
2019-03-20T10:23:33.537Z,85.06
2019-03-20T10:26:40.145Z,84.58
2019-03-20T10:29:46.562Z,84.77
2019-03-20T10:32:53.003Z,84.47
2019-03-20T10:35:59.664Z,84.76
2019-03-20T10:39:09.800Z,84.45
2019-03-20T10:42:16.441Z,84.55
2019-03-20T10:45:23.439Z,84.29
2019-03-20T10:48:29.790Z,83.99
2019-03-20T10:51:36.517Z,84.20
2019-03-20T10:54:43.013Z,83.98
2019-03-20T10:57:49.421Z,83.52
2019-03-20T11:00:55.798Z,83.83
2019-03-20T11:04:02.240Z,84.17
2019-03-20T11:07:09.344Z,84.13
2019-03-20T11:10:17.757Z,83.98
2019-03-20T11:13:24.036Z,84.13
2019-03-20T11:16:30.539Z,84.00
2019-03-20T11:19:36.882Z,83.75
2019-03-20T11:22:43.649Z,84.08
2019-03-20T11:25:50.420Z,83.81
2019-03-20T11:28:56.792Z,83.89
2019-03-20T11:32:03.134Z,84.06
2019-03-20T11:35:09.576Z,83.59
2019-03-20T11:38:15.906Z,84.12
2019-03-20T11:41:22.630Z,83.94
2019-03-20T11:44:29.126Z,84.02
2019-03-20T11:47:35.734Z,84.32
2019-03-20T11:50:42.093Z,83.51
2019-03-20T11:53:48.766Z,83.40
2019-03-20T11:56:56.414Z,82.45
2019-03-20T12:00:02.847Z,82.39
2019-03-20T12:03:09.328Z,81.79
2019-03-20T12:06:16.262Z,81.39
2019-03-20T12:09:24.102Z,81.78
2019-03-20T12:12:32.273Z,81.18
2019-03-20T12:15:38.619Z,81.09
2019-03-20T12:18:45.049Z,80.58
2019-03-20T12:21:51.512Z,80.23
2019-03-20T12:24:57.993Z,80.63
2019-03-20T12:28:04.590Z,80.30
2019-03-20T12:31:11.210Z,79.86
2019-03-20T12:34:20.321Z,79.82
2019-03-20T12:37:28.310Z,79.80
2019-03-20T12:40:34.926Z,79.64
2019-03-20T12:43:41.720Z,79.33
2019-03-20T12:46:48.297Z,79.52
2019-03-20T12:49:55.043Z,78.97
2019-03-20T12:53:02.276Z,78.80
2019-03-20T12:56:08.813Z,78.62
2019-03-20T12:59:15.165Z,78.34
2019-03-20T13:02:21.738Z,77.26
2019-03-20T13:05:28.095Z,76.89
2019-03-20T13:08:34.478Z,76.30
2019-03-20T13:11:40.874Z,76.49
2019-03-20T13:14:48.441Z,76.07
2019-03-20T13:17:54.850Z,75.91
2019-03-20T13:21:02.310Z,76.20
2019-03-20T13:24:08.658Z,75.45
2019-03-20T13:27:15.312Z,75.21
2019-03-20T13:30:24.349Z,75.51
2019-03-20T13:33:30.930Z,74.42
2019-03-20T13:36:37.419Z,74.12
2019-03-20T13:39:43.912Z,73.39
2019-03-20T13:42:50.240Z,73.07
2019-03-20T13:45:57.247Z,72.84
2019-03-20T13:49:03.938Z,72.35
2019-03-20T13:52:10.481Z,72.36
2019-03-20T13:55:19.662Z,71.15
2019-03-20T13:58:27.098Z,70.54
2019-03-20T14:01:33.540Z,70.42
2019-03-20T14:04:40.143Z,70.04
2019-03-20T14:07:46.505Z,68.81
2019-03-20T14:10:53.092Z,67.99
2019-03-20T14:13:59.387Z,67.15
2019-03-20T14:17:05.874Z,67.07
2019-03-20T14:20:14.768Z,66.46
2019-03-20T14:23:21.744Z,65.88
2019-03-20T14:26:29.013Z,65.77
2019-03-20T14:29:35.577Z,65.58
2019-03-20T14:32:42.026Z,65.53
2019-03-20T14:35:48.430Z,63.50
2019-03-20T14:38:54.757Z,63.28
2019-03-20T14:42:01.992Z,62.52
2019-03-20T14:45:11.430Z,62.57
2019-03-20T14:48:20.758Z,62.03
2019-03-20T14:51:27.579Z,61.29
2019-03-20T14:54:34.888Z,60.47
2019-03-20T14:57:45.641Z,60.16
2019-03-20T15:00:52.166Z,60.59
2019-03-20T15:03:58.771Z,60.06
2019-03-20T15:07:05.226Z,60.55
2019-03-20T15:10:13.551Z,60.77
2019-03-20T15:13:22.312Z,60.21
2019-03-20T15:16:28.659Z,61.50
2019-03-20T15:19:35.238Z,61.95
2019-03-20T15:22:42.919Z,61.96
2019-03-20T15:25:49.764Z,61.66
2019-03-20T15:28:56.234Z,62.06
2019-03-20T15:32:02.747Z,61.89
2019-03-20T15:35:09.281Z,62.64
2019-03-20T15:38:16.096Z,62.76
2019-03-20T15:41:25.600Z,63.08
2019-03-20T15:44:34.129Z,63.30
2019-03-20T15:47:40.450Z,63.44
2019-03-20T15:50:47.211Z,64.13
2019-03-20T15:53:54.568Z,64.26
2019-03-20T15:57:01.434Z,64.59
2019-03-20T16:00:11.453Z,65.04
2019-03-20T16:03:18.390Z,65.10
2019-03-20T16:06:25.076Z,65.49
2019-03-20T16:09:31.769Z,65.66
2019-03-20T16:12:41.078Z,65.48
2019-03-20T16:15:47.654Z,65.35
2019-03-20T16:18:54.109Z,65.78
2019-03-20T16:22:01.206Z,65.89
2019-03-20T16:25:08.333Z,66.21
2019-03-20T16:28:17.918Z,66.16
2019-03-20T16:31:24.285Z,66.24
2019-03-20T16:34:32.734Z,66.33
2019-03-20T16:37:42.561Z,66.70
2019-03-20T16:40:51.832Z,66.48
2019-03-20T16:43:58.258Z,66.66
2019-03-20T16:47:04.767Z,66.89
2019-03-20T16:50:12.459Z,66.91
2019-03-20T16:53:19.440Z,66.53
2019-03-20T16:56:25.974Z,66.57
2019-03-20T16:59:35.326Z,66.31
2019-03-20T17:02:41.827Z,66.25
2019-03-20T17:05:48.400Z,66.27
2019-03-20T17:08:54.785Z,66.26
2019-03-20T17:12:01.580Z,66.83
2019-03-20T17:15:19.402Z,66.64
2019-03-20T17:18:26.053Z,67.10
2019-03-20T17:21:33.497Z,66.90
2019-03-20T17:24:40.473Z,66.85
2019-03-20T17:27:46.906Z,67.08
2019-03-20T17:30:53.522Z,67.12
2019-03-20T17:34:16.310Z,67.29
2019-03-20T17:37:22.302Z,67.74
2019-03-20T17:40:28.727Z,68.05
2019-03-20T17:43:35.157Z,67.62
2019-03-20T17:46:42.757Z,67.97
2019-03-20T17:49:49.518Z,67.78
2019-03-20T17:52:55.989Z,67.78
2019-03-20T17:56:04.100Z,67.36
2019-03-20T17:59:13.199Z,67.65
2019-03-20T18:02:24.242Z,67.26
2019-03-20T18:05:43.560Z,67.92
2019-03-20T18:08:51.812Z,67.65
2019-03-20T18:11:58.105Z,67.17
2019-03-20T18:15:05.900Z,68.11
2019-03-20T18:18:12.292Z,68.07
2019-03-20T18:21:18.628Z,67.56
2019-03-20T18:24:27.716Z,67.71
2019-03-20T18:27:36.493Z,67.43
2019-03-20T18:30:42.907Z,67.80
2019-03-20T18:33:50.548Z,67.80
2019-03-20T18:36:59.259Z,67.58
2019-03-20T18:40:09.407Z,68.23
2019-03-20T18:43:16.598Z,68.30
2019-03-20T18:46:23.328Z,68.24
2019-03-20T18:49:30.970Z,68.81
2019-03-20T18:52:37.587Z,68.76
2019-03-20T18:55:44.581Z,68.96
2019-03-20T18:58:51.629Z,69.76
2019-03-20T19:01:58.321Z,70.05
2019-03-20T19:05:06.331Z,70.18
2019-03-20T19:08:12.736Z,70.90
2019-03-20T19:11:19.334Z,70.45
2019-03-20T19:14:27.484Z,69.70
2019-03-20T19:17:34.195Z,69.34
2019-03-20T19:20:43.488Z,69.43
2019-03-20T19:23:50.482Z,69.04
2019-03-20T19:26:56.836Z,69.19
2019-03-20T19:30:03.292Z,68.89
2019-03-20T19:33:09.835Z,68.92
2019-03-20T19:36:16.243Z,68.60
2019-03-20T19:39:22.636Z,68.40
2019-03-20T19:42:29.221Z,68.28
2019-03-20T19:45:35.553Z,68.53
2019-03-20T19:48:41.895Z,68.74
2019-03-20T19:51:48.216Z,68.16
2019-03-20T19:54:55.611Z,68.25
2019-03-20T19:58:01.892Z,67.80
2019-03-20T20:01:08.567Z,67.37
2019-03-20T20:04:16.120Z,67.21
2019-03-20T20:07:22.765Z,66.32
2019-03-20T20:10:29.261Z,66.32
2019-03-20T20:13:35.680Z,66.20
2019-03-20T20:16:46.052Z,65.82
2019-03-20T20:19:52.710Z,66.09
2019-03-20T20:23:00.613Z,65.76
2019-03-20T20:26:07.063Z,65.20
2019-03-20T20:29:13.815Z,64.90
2019-03-20T20:32:20.525Z,64.40
2019-03-20T20:35:26.952Z,64.40
2019-03-20T20:38:34.758Z,64.46
2019-03-20T20:41:41.138Z,64.93
2019-03-20T20:44:47.592Z,64.66
2019-03-20T20:47:53.935Z,65.19
2019-03-20T20:51:00.381Z,64.79
2019-03-20T20:54:11.707Z,64.89
2019-03-20T20:57:18.632Z,65.09
2019-03-20T21:00:24.980Z,64.84
2019-03-20T21:03:34.270Z,64.36
2019-03-20T21:06:40.718Z,64.79
2019-03-20T21:09:48.242Z,64.00
2019-03-20T21:12:57.362Z,64.07
2019-03-20T21:16:04.121Z,63.01
2019-03-20T21:19:33.401Z,63.60
2019-03-20T21:23:22.049Z,63.84
2019-03-20T21:26:28.931Z,62.60
2019-03-20T21:30:09.152Z,63.02
2019-03-20T21:33:59.803Z,63.88
2019-03-20T21:37:59.439Z,62.94
2019-03-20T21:41:50.365Z,62.90
2019-03-20T21:45:14.751Z,64.06
2019-03-20T21:48:21.542Z,63.38
2019-03-20T21:51:28.362Z,63.80
2019-03-20T21:55:29.851Z,63.43
2019-03-20T21:59:02.259Z,63.70
2019-03-20T22:02:47.235Z,63.51
2019-03-20T22:06:44.163Z,63.13
2019-03-20T22:10:33.621Z,62.98
2019-03-20T22:13:44.484Z,63.16
2019-03-20T22:17:50.620Z,63.38
2019-03-20T22:21:35.797Z,62.83
2019-03-20T22:25:11.397Z,63.04
2019-03-20T22:29:10.963Z,63.50
2019-03-20T22:32:58.368Z,63.64
2019-03-20T22:36:32.685Z,63.46
2019-03-20T22:40:36.367Z,63.63
2019-03-20T22:43:50.791Z,64.63
2019-03-20T22:47:37.963Z,65.83
2019-03-20T22:51:00.366Z,66.13
2019-03-20T22:54:31.145Z,66.58
2019-03-20T22:58:17.409Z,66.49
2019-03-20T23:01:48.941Z,67.22
2019-03-20T23:04:58.662Z,67.09
2019-03-20T23:08:12.596Z,67.40
2019-03-20T23:11:19.528Z,67.69
2019-03-20T23:14:26.597Z,67.49
2019-03-20T23:17:33.451Z,67.66
2019-03-20T23:20:40.346Z,67.88
2019-03-20T23:23:48.287Z,67.89
2019-03-20T23:26:56.035Z,68.18
2019-03-20T23:30:04.032Z,68.07
2019-03-20T23:33:11.070Z,68.07
2019-03-20T23:36:18.568Z,67.88
2019-03-20T23:39:26.721Z,68.43
2019-03-20T23:42:33.761Z,67.80
2019-03-20T23:45:40.627Z,67.89
2019-03-20T23:48:57.031Z,68.22
2019-03-20T23:52:04.059Z,68.22
2019-03-20T23:55:12.038Z,68.39
2019-03-20T23:58:21.385Z,68.18
